Time;durP1;ratioP1;P1;durP2;ratioP2;P2;SDS_P1;SDS_P2;PMS_P1;PMS_P2;Temp;Humidity;BMP_temperature;BMP_pressure;BME280_temperature;BME280_humidity;BME280_pressure;Samples;Min_cycle;Max_cycle;Signal;HPM_P1;HPM_P2
2023/07/05 00:00:50;;;;;;;2.47;1.05;;;19.80;92.60;;;;;;5031550;28;20476;-70
2023/07/05 00:03:16;;;;;;;1.30;0.98;;;19.80;92.50;;;;;;5031064;28;20454;-70
2023/07/05 00:05:42;;;;;;;3.63;1.13;;;19.80;92.50;;;;;;5031174;28;20021;-70
2023/07/05 00:08:07;;;;;;;2.47;1.02;;;19.80;92.50;;;;;;5031048;28;20117;-68
2023/07/05 00:10:34;;;;;;;2.20;1.02;;;19.90;92.60;;;;;;5029049;28;20454;-68
2023/07/05 00:12:59;;;;;;;2.03;1.10;;;19.90;92.80;;;;;;5025410;28;20025;-68
2023/07/05 00:15:26;;;;;;;1.95;1.30;;;19.90;92.50;;;;;;5030220;28;20124;-68
2023/07/05 00:17:52;;;;;;;1.60;0.90;;;19.90;92.50;;;;;;5022600;28;20080;-68
2023/07/05 00:20:19;;;;;;;3.15;1.10;;;19.90;92.60;;;;;;5029511;28;20120;-68
2023/07/05 00:22:45;;;;;;;1.80;0.80;;;19.90;92.60;;;;;;5025614;28;20022;-68
2023/07/05 00:25:11;;;;;;;2.83;1.17;;;19.90;92.80;;;;;;5026739;28;20030;-68
2023/07/05 00:27:37;;;;;;;3.38;1.02;;;19.90;92.80;;;;;;5025051;28;20048;-68
2023/07/05 00:30:03;;;;;;;2.20;1.30;;;19.80;92.80;;;;;;5032084;28;20025;-68
2023/07/05 00:32:28;;;;;;;1.35;0.80;;;19.90;92.90;;;;;;5030105;28;20033;-69
2023/07/05 00:34:54;;;;;;;1.55;0.80;;;19.80;93.10;;;;;;5027083;28;20025;-68
2023/07/05 00:37:20;;;;;;;5.85;1.50;;;19.80;93.10;;;;;;5028211;28;20026;-69
2023/07/05 00:39:46;;;;;;;2.00;1.10;;;19.80;93.10;;;;;;5032788;28;20499;-75
2023/07/05 00:42:12;;;;;;;1.60;1.23;;;19.80;93.10;;;;;;5027602;28;20034;-75
2023/07/05 00:44:37;;;;;;;3.08;1.27;;;19.80;93.10;;;;;;5034117;28;20033;-75
2023/07/05 00:47:06;;;;;;;2.53;1.30;;;19.80;93.20;;;;;;5031707;28;20403;-76
2023/07/05 00:49:36;;;;;;;3.05;1.55;;;19.70;93.30;;;;;;5031933;28;20044;-76
2023/07/05 00:52:06;;;;;;;2.63;1.27;;;19.70;93.30;;;;;;5022966;28;20025;-78
2023/07/05 00:54:37;;;;;;;3.22;0.93;;;19.70;93.40;;;;;;5033272;28;20022;-76
2023/07/05 00:57:17;;;;;;;3.53;1.15;;;19.70;93.50;;;;;;5030279;28;20029;-78
2023/07/05 01:00:07;;;;;;;2.20;1.08;;;19.70;93.50;;;;;;5032865;28;20033;-78
2023/07/05 01:02:32;;;;;;;1.58;1.13;;;19.70;93.60;;;;;;5033538;28;20061;-78
2023/07/05 01:05:00;;;;;;;1.80;1.20;;;19.70;93.70;;;;;;5033632;28;20083;-75
2023/07/05 01:07:26;;;;;;;3.45;0.90;;;19.70;93.80;;;;;;5037289;28;20052;-78
2023/07/05 01:09:51;;;;;;;3.67;1.50;;;19.70;93.80;;;;;;5037248;28;20029;-77
2023/07/05 01:12:34;;;;;;;2.08;1.10;;;19.70;93.80;;;;;;5051316;28;20088;-78
2023/07/05 01:15:12;;;;;;;1.85;0.93;;;19.70;94.00;;;;;;5035388;28;20120;-77
2023/07/05 01:17:56;;;;;;;2.17;1.00;;;19.70;94.10;;;;;;5033839;28;20029;-77
2023/07/05 01:20:31;;;;;;;1.58;1.05;;;19.60;94.30;;;;;;5057562;28;20116;-77
2023/07/05 01:23:30;;;;;;;1.58;1.10;;;19.60;94.60;;;;;;5043089;28;20508;-77
2023/07/05 01:26:33;;;;;;;3.65;1.10;;;19.60;94.80;;;;;;5032472;28;20029;-78
2023/07/05 01:28:59;;;;;;;1.15;0.88;;;19.50;94.90;;;;;;5034491;28;20033;-78
2023/07/05 01:31:54;;;;;;;1.40;1.00;;;19.40;95.10;;;;;;5036113;28;20031;-78
2023/07/05 01:34:29;;;;;;;2.42;1.23;;;19.40;95.20;;;;;;5037902;28;20156;-78
2023/07/05 01:36:56;;;;;;;3.42;1.05;;;19.30;95.50;;;;;;5052229;28;20604;-78
2023/07/05 01:39:21;;;;;;;2.33;1.02;;;19.30;95.70;;;;;;5034008;28;20489;-78
2023/07/05 01:41:47;;;;;;;1.40;1.00;;;19.30;95.80;;;;;;5035824;28;20142;-79
2023/07/05 01:44:16;;;;;;;2.28;1.13;;;19.20;95.90;;;;;;5040038;28;20085;-78
2023/07/05 01:47:03;;;;;;;3.28;1.10;;;19.20;96.00;;;;;;5035396;28;20025;-77
2023/07/05 01:49:46;;;;;;;3.22;1.20;;;19.20;96.20;;;;;;5036036;28;20017;-76
2023/07/05 01:52:31;;;;;;;2.33;1.25;;;19.20;96.30;;;;;;5031262;28;20049;-77
2023/07/05 01:55:18;;;;;;;2.65;1.17;;;19.10;96.30;;;;;;5045110;28;20045;-77
2023/07/05 01:57:56;;;;;;;1.63;1.00;;;19.10;96.60;;;;;;5031349;28;20034;-77
2023/07/05 02:00:25;;;;;;;5.70;1.27;;;19.10;96.60;;;;;;5036053;28;20532;-77
2023/07/05 02:03:12;;;;;;;2.53;1.15;;;19.10;96.60;;;;;;5031940;28;20030;-77
2023/07/05 02:05:38;;;;;;;1.98;1.10;;;19.10;96.60;;;;;;5028974;28;20034;-78
2023/07/05 02:08:04;;;;;;;2.88;1.10;;;19.10;96.70;;;;;;5031548;28;20508;-76
2023/07/05 02:10:32;;;;;;;2.17;0.70;;;19.10;96.80;;;;;;5038793;28;20021;-77
2023/07/05 02:13:02;;;;;;;1.55;1.02;;;19.10;96.90;;;;;;5033777;28;20472;-77
2023/07/05 02:15:28;;;;;;;2.90;1.25;;;19.10;97.00;;;;;;5034188;28;20028;-77
2023/07/05 02:17:53;;;;;;;1.58;1.10;;;19.10;97.20;;;;;;5029490;28;20108;-76
2023/07/05 02:20:19;;;;;;;3.35;1.42;;;19.10;97.90;;;;;;5028319;28;20033;-77
2023/07/05 02:22:45;;;;;;;3.45;1.23;;;19.10;98.70;;;;;;5028332;28;20387;-77
2023/07/05 02:25:10;;;;;;;2.50;1.23;;;19.10;98.90;;;;;;5031441;28;20032;-76
2023/07/05 02:27:37;;;;;;;3.28;1.38;;;19.10;99.10;;;;;;5030119;28;20485;-77
2023/07/05 02:30:05;;;;;;;2.33;1.58;;;19.10;99.10;;;;;;5026934;28;20157;-77
2023/07/05 02:32:31;;;;;;;3.17;1.50;;;19.00;99.00;;;;;;5031204;28;20021;-77
2023/07/05 02:35:01;;;;;;;6.13;2.20;;;18.90;99.10;;;;;;5032173;28;20032;-77
2023/07/05 02:37:26;;;;;;;2.78;2.13;;;18.90;99.20;;;;;;5026044;28;20544;-76
2023/07/05 02:39:53;;;;;;;2.55;1.77;;;18.90;99.60;;;;;;5028490;28;20057;-77
2023/07/05 02:42:19;;;;;;;2.88;1.83;;;18.80;99.80;;;;;;5032965;28;20025;-77
2023/07/05 02:44:48;;;;;;;3.33;1.98;;;18.80;99.90;;;;;;5029433;28;20459;-77
2023/07/05 02:47:14;;;;;;;6.60;2.28;;;18.80;99.90;;;;;;5029403;28;20059;-76
2023/07/05 02:49:40;;;;;;;3.78;1.73;;;18.70;99.90;;;;;;5026742;28;20419;-76
2023/07/05 02:52:06;;;;;;;3.28;1.77;;;18.70;99.90;;;;;;5030280;28;20029;-76
2023/07/05 02:54:31;;;;;;;4.35;1.90;;;18.60;99.90;;;;;;5029143;28;20152;-76
2023/07/05 02:56:57;;;;;;;2.53;1.70;;;18.50;99.90;;;;;;5033255;28;20029;-77
2023/07/05 02:59:23;;;;;;;3.42;2.10;;;18.50;99.90;;;;;;5033356;28;20032;-78
2023/07/05 03:01:48;;;;;;;4.95;2.47;;;18.50;99.90;;;;;;5036715;28;20388;-77
2023/07/05 03:04:14;;;;;;;9.35;2.80;;;18.40;99.90;;;;;;5036100;28;20021;-77
2023/07/05 03:06:39;;;;;;;10.82;2.97;;;18.40;99.90;;;;;;5035779;28;20065;-77
2023/07/05 03:09:05;;;;;;;7.53;2.60;;;18.40;99.90;;;;;;5038386;28;21844;-78
2023/07/05 03:11:31;;;;;;;5.70;2.40;;;18.30;99.90;;;;;;5042196;28;20034;-78
2023/07/05 03:13:57;;;;;;;4.90;2.08;;;18.30;99.90;;;;;;5040806;28;20025;-78
2023/07/05 03:16:22;;;;;;;5.18;2.78;;;18.20;99.90;;;;;;5038040;28;20029;-78
2023/07/05 03:18:48;;;;;;;7.45;2.60;;;18.20;99.90;;;;;;5038473;28;20029;-78
2023/07/05 03:21:13;;;;;;;3.55;1.92;;;18.10;99.90;;;;;;5037078;28;20048;-78
2023/07/05 03:23:39;;;;;;;5.05;1.60;;;18.10;99.90;;;;;;5033846;28;20042;-78
2023/07/05 03:26:09;;;;;;;7.15;2.03;;;18.00;99.90;;;;;;5034951;28;20037;-77
2023/07/05 03:28:36;;;;;;;4.30;1.83;;;18.00;99.90;;;;;;5036375;28;20021;-78
2023/07/05 03:31:11;;;;;;;4.30;1.60;;;18.00;99.90;;;;;;5030073;28;20130;-78
2023/07/05 03:33:37;;;;;;;4.35;1.75;;;18.00;99.90;;;;;;5033614;28;20024;-77
2023/07/05 03:36:06;;;;;;;3.08;1.80;;;18.00;99.90;;;;;;5031203;28;20112;-78
2023/07/05 03:38:33;;;;;;;3.45;1.60;;;18.00;99.90;;;;;;5034359;28;20105;-78
2023/07/05 03:41:04;;;;;;;4.72;1.70;;;18.00;99.90;;;;;;5038927;28;20034;-78
2023/07/05 03:43:33;;;;;;;4.38;1.73;;;18.00;99.90;;;;;;5034207;28;20076;-78
2023/07/05 03:45:59;;;;;;;3.85;1.83;;;18.00;99.90;;;;;;5035146;28;20041;-76
2023/07/05 03:48:26;;;;;;;3.72;1.48;;;18.00;99.90;;;;;;5030160;28;20551;-77
2023/07/05 03:50:55;;;;;;;3.97;1.50;;;18.00;99.90;;;;;;5027683;28;20038;-77
2023/07/05 03:53:20;;;;;;;2.75;1.52;;;18.00;99.90;;;;;;5033558;28;20022;-77
2023/07/05 03:55:46;;;;;;;3.35;1.40;;;18.00;99.90;;;;;;5031353;28;20033;-76
2023/07/05 03:58:11;;;;;;;4.82;1.70;;;18.00;99.90;;;;;;5035390;28;20030;-76
2023/07/05 04:00:37;;;;;;;4.32;1.60;;;18.10;99.90;;;;;;5031913;28;20044;-77
2023/07/05 04:03:03;;;;;;;4.57;1.40;;;18.00;99.90;;;;;;5032376;28;20056;-76
2023/07/05 04:05:28;;;;;;;2.20;1.55;;;18.10;99.90;;;;;;5033364;28;20537;-77
2023/07/05 04:07:54;;;;;;;4.43;1.20;;;18.10;99.90;;;;;;5029828;28;20113;-77
2023/07/05 04:10:19;;;;;;;2.20;1.10;;;18.10;99.90;;;;;;5025928;28;20082;-77
2023/07/05 04:12:45;;;;;;;1.85;1.05;;;18.00;99.90;;;;;;5029526;28;20029;-76
2023/07/05 04:15:11;;;;;;;1.50;0.85;;;18.00;99.90;;;;;;5032918;28;20033;-76
2023/07/05 04:17:36;;;;;;;2.08;0.90;;;18.00;99.90;;;;;;5043143;22;20041;-74
2023/07/05 04:20:03;;;;;;;1.90;0.90;;;18.00;99.90;;;;;;5031149;28;20519;-73
2023/07/05 04:22:33;;;;;;;2.00;1.05;;;18.00;99.90;;;;;;5033089;28;20024;-73
2023/07/05 04:24:59;;;;;;;2.17;1.30;;;18.00;99.90;;;;;;5031870;28;20107;-73
2023/07/05 04:27:24;;;;;;;2.72;1.00;;;18.00;99.90;;;;;;5034237;28;20037;-72
2023/07/05 04:29:50;;;;;;;1.73;1.20;;;18.10;99.90;;;;;;5033632;28;20033;-73
2023/07/05 04:32:15;;;;;;;1.52;0.82;;;18.10;99.90;;;;;;5034337;28;20388;-73
2023/07/05 04:34:41;;;;;;;2.90;1.13;;;18.10;99.90;;;;;;5041153;28;20063;-73
2023/07/05 04:37:07;;;;;;;1.98;0.88;;;18.10;99.90;;;;;;5037395;28;20025;-73
2023/07/05 04:39:32;;;;;;;1.90;0.98;;;18.10;99.90;;;;;;5034884;28;20444;-73
2023/07/05 04:41:58;;;;;;;2.42;0.93;;;18.10;99.90;;;;;;5033373;28;20037;-73
2023/07/05 04:44:24;;;;;;;1.60;0.85;;;18.10;99.90;;;;;;5034417;28;20095;-73
2023/07/05 04:46:49;;;;;;;3.35;1.17;;;18.10;99.90;;;;;;5033019;28;20097;-73
2023/07/05 04:49:15;;;;;;;3.28;1.23;;;18.10;99.90;;;;;;5033873;28;20104;-73
2023/07/05 04:51:40;;;;;;;2.45;1.20;;;18.10;99.90;;;;;;5036937;28;20507;-74
2023/07/05 04:54:06;;;;;;;1.80;1.10;;;18.10;99.90;;;;;;5031194;28;20032;-73
2023/07/05 04:56:32;;;;;;;3.50;1.10;;;18.20;99.90;;;;;;5025329;28;20033;-75
2023/07/05 04:58:57;;;;;;;4.13;1.30;;;18.20;99.90;;;;;;5029664;28;20049;-69
2023/07/05 05:01:23;;;;;;;1.77;1.20;;;18.10;99.90;;;;;;5035038;28;20464;-69
2023/07/05 05:03:49;;;;;;;4.57;1.20;;;18.20;99.90;;;;;;5024975;28;20395;-69
2023/07/05 05:06:14;;;;;;;2.45;1.33;;;18.30;99.90;;;;;;5032106;28;20077;-69
2023/07/05 05:08:40;;;;;;;3.05;1.48;;;18.30;99.90;;;;;;5032540;28;20021;-68
2023/07/05 05:11:06;;;;;;;1.95;1.10;;;18.40;99.90;;;;;;5027612;28;20491;-69
2023/07/05 05:13:34;;;;;;;2.65;1.50;;;18.50;99.90;;;;;;5026113;28;20412;-69
2023/07/05 05:16:00;;;;;;;3.58;1.45;;;18.60;99.90;;;;;;5034382;28;20116;-69
2023/07/05 05:18:31;;;;;;;3.85;1.65;;;18.70;99.90;;;;;;5027994;28;20503;-68
2023/07/05 05:20:58;;;;;;;2.55;1.40;;;18.70;99.90;;;;;;5028169;28;20080;-68
2023/07/05 05:23:24;;;;;;;1.77;1.05;;;18.80;99.90;;;;;;5031644;28;20092;-68
2023/07/05 05:25:50;;;;;;;4.40;1.80;;;19.00;99.90;;;;;;5033926;28;20033;-68
2023/07/05 05:28:16;;;;;;;3.40;1.50;;;19.10;99.90;;;;;;5030841;28;20068;-69
2023/07/05 05:30:43;;;;;;;4.40;1.60;;;19.20;99.90;;;;;;5027618;28;20079;-69
2023/07/05 05:33:09;;;;;;;3.22;1.50;;;19.30;99.90;;;;;;5027333;28;20021;-69
2023/07/05 05:35:35;;;;;;;3.92;1.50;;;19.50;99.90;;;;;;5028437;28;20029;-68
2023/07/05 05:38:02;;;;;;;4.00;1.75;;;19.50;99.90;;;;;;5028377;28;20095;-68
2023/07/05 05:40:28;;;;;;;4.10;1.60;;;19.60;99.90;;;;;;5024259;28;20503;-68
2023/07/05 05:42:53;;;;;;;2.72;1.30;;;19.80;99.90;;;;;;5031662;28;20022;-68
2023/07/05 05:45:19;;;;;;;2.65;1.65;;;19.90;99.90;;;;;;5030603;28;20108;-68
2023/07/05 05:47:45;;;;;;;2.55;1.73;;;20.00;99.90;;;;;;5034646;28;20033;-69
2023/07/05 05:50:11;;;;;;;3.97;2.22;;;20.10;99.90;;;;;;5030173;28;20022;-68
2023/07/05 05:52:36;;;;;;;2.55;1.75;;;20.30;99.90;;;;;;5033295;28;20025;-69
2023/07/05 05:55:03;;;;;;;2.40;1.63;;;20.40;99.90;;;;;;5040544;28;20030;-69
2023/07/05 05:57:29;;;;;;;6.15;1.90;;;20.50;99.90;;;;;;5032677;28;20034;-73
2023/07/05 05:59:54;;;;;;;5.20;1.83;;;20.50;99.90;;;;;;5030058;28;20026;-69
2023/07/05 06:02:20;;;;;;;3.17;1.63;;;20.70;99.90;;;;;;5031972;28;20028;-69
2023/07/05 06:04:46;;;;;;;6.07;1.50;;;20.70;99.90;;;;;;5029715;28;20032;-69
2023/07/05 06:07:11;;;;;;;3.33;1.58;;;20.80;99.90;;;;;;5030644;28;20061;-70
2023/07/05 06:09:46;;;;;;;2.70;1.63;;;20.90;99.90;;;;;;5030617;28;20029;-73
2023/07/05 06:12:12;;;;;;;2.85;1.85;;;21.00;99.90;;;;;;5024827;28;20416;-74
2023/07/05 06:14:38;;;;;;;2.40;1.38;;;21.10;99.90;;;;;;5024329;28;20918;-74
2023/07/05 06:17:04;;;;;;;2.88;1.30;;;21.20;99.90;;;;;;5026199;28;20048;-74
2023/07/05 06:19:29;;;;;;;2.40;1.42;;;21.30;99.90;;;;;;5029718;28;20358;-74
2023/07/05 06:21:55;;;;;;;2.80;1.55;;;21.40;99.90;;;;;;5029590;28;20033;-74
2023/07/05 06:24:21;;;;;;;11.10;1.70;;;21.60;99.90;;;;;;5029869;28;20036;-74
2023/07/05 06:26:46;;;;;;;3.22;1.60;;;21.70;99.90;;;;;;5027063;28;20111;-72
2023/07/05 06:29:12;;;;;;;2.88;1.27;;;21.80;99.90;;;;;;5027412;28;20040;-71
2023/07/05 06:31:37;;;;;;;2.15;1.45;;;21.90;99.90;;;;;;5043760;28;20066;-71
2023/07/05 06:34:03;;;;;;;1.88;1.27;;;22.00;99.90;;;;;;5037331;28;20103;-76
2023/07/05 06:36:29;;;;;;;1.77;1.38;;;22.10;99.90;;;;;;5034836;28;20032;-77
2023/07/05 06:38:54;;;;;;;1.90;1.17;;;22.00;99.90;;;;;;5031532;28;20040;-78
2023/07/05 06:41:20;;;;;;;1.73;1.10;;;22.00;99.90;;;;;;5037585;28;20090;-78
2023/07/05 06:43:46;;;;;;;2.72;1.45;;;22.00;99.90;;;;;;5036690;28;20024;-77
2023/07/05 06:46:11;;;;;;;4.85;1.27;;;21.90;99.90;;;;;;5034634;28;20101;-78
2023/07/05 06:48:37;;;;;;;1.50;1.10;;;22.00;99.90;;;;;;5034401;28;20017;-77
2023/07/05 06:51:02;;;;;;;2.30;1.27;;;21.90;99.90;;;;;;5033406;28;20033;-77
2023/07/05 06:53:29;;;;;;;3.25;1.50;;;21.90;99.90;;;;;;5033935;28;20026;-78
2023/07/05 06:55:56;;;;;;;4.18;1.58;;;21.90;99.90;;;;;;5035609;28;20026;-77
2023/07/05 06:58:22;;;;;;;2.08;1.05;;;21.80;99.90;;;;;;5036550;28;20017;-77
2023/07/05 07:00:49;;;;;;;2.17;1.30;;;21.80;99.90;;;;;;5050156;28;20032;-77
2023/07/05 07:03:15;;;;;;;2.80;1.55;;;21.70;99.90;;;;;;5031196;28;20090;-77
2023/07/05 07:05:50;;;;;;;3.92;1.88;;;21.70;99.90;;;;;;5034723;28;20555;-78
2023/07/05 07:08:15;;;;;;;5.13;2.20;;;21.60;99.90;;;;;;5037784;28;20022;-78
2023/07/05 07:10:41;;;;;;;6.43;2.05;;;21.40;99.90;;;;;;5035615;28;20353;-78
2023/07/05 07:13:06;;;;;;;10.90;3.38;;;21.20;99.90;;;;;;5036017;28;20036;-78
2023/07/05 07:15:32;;;;;;;5.03;1.90;;;20.90;99.90;;;;;;5037430;28;20018;-78
2023/07/05 07:17:57;;;;;;;7.32;2.90;;;20.50;99.90;;;;;;5036895;28;20030;-78
2023/07/05 07:20:25;;;;;;;7.13;2.33;;;20.20;99.90;;;;;;5034933;28;20109;-77
2023/07/05 07:22:51;;;;;;;4.57;1.83;;;19.90;99.90;;;;;;5024027;28;20499;-77
2023/07/05 07:25:17;;;;;;;3.92;1.77;;;19.70;99.90;;;;;;5020396;28;20026;-77
2023/07/05 07:27:43;;;;;;;5.55;1.85;;;19.50;99.90;;;;;;5026910;28;20032;-76
2023/07/05 07:30:11;;;;;;;5.30;1.75;;;19.40;99.90;;;;;;5023158;28;20439;-77
2023/07/05 07:32:37;;;;;;;3.45;1.40;;;19.20;99.90;;;;;;5028478;28;20079;-77
2023/07/05 07:35:03;;;;;;;3.88;1.60;;;19.20;99.90;;;;;;5027959;28;20021;-77
2023/07/05 07:37:31;;;;;;;2.97;1.50;;;19.10;99.90;;;;;;5028832;28;20032;-76
2023/07/05 07:39:57;;;;;;;4.88;1.42;;;19.00;99.90;;;;;;5027569;28;20116;-77
2023/07/05 07:42:22;;;;;;;3.53;2.05;;;19.00;99.90;;;;;;5024928;28;20516;-77
2023/07/05 07:44:48;;;;;;;3.78;1.90;;;19.00;99.90;;;;;;5025045;28;20120;-76
2023/07/05 07:47:14;;;;;;;3.95;1.52;;;19.00;99.90;;;;;;5024597;28;20060;-76
2023/07/05 07:49:39;;;;;;;5.22;1.50;;;18.90;99.90;;;;;;5030634;28;20029;-78
2023/07/05 07:52:07;;;;;;;2.70;0.65;;;18.80;99.90;;;;;;5033690;28;20021;-77
2023/07/05 07:54:33;;;;;;;0.80;0.70;;;18.60;99.90;;;;;;5037722;28;20083;-77
2023/07/05 07:56:59;;;;;;;1.52;0.98;;;18.60;99.90;;;;;;5033238;28;20049;-77
2023/07/05 07:59:25;;;;;;;4.55;0.73;;;18.50;99.90;;;;;;5034691;28;20443;-76
2023/07/05 08:01:53;;;;;;;2.65;1.00;;;18.40;99.90;;;;;;5031068;28;20041;-76
2023/07/05 08:04:19;;;;;;;4.60;0.85;;;18.40;99.90;;;;;;5029924;28;20043;-77
2023/07/05 08:06:48;;;;;;;3.67;0.95;;;18.40;99.90;;;;;;5031512;28;20479;-76
2023/07/05 08:09:23;;;;;;;3.42;1.40;;;18.30;99.90;;;;;;5032875;28;20022;-77
2023/07/05 08:11:49;;;;;;;3.13;1.23;;;18.20;99.90;;;;;;5029077;28;20041;-76
2023/07/05 08:14:17;;;;;;;2.58;0.93;;;18.20;99.90;;;;;;5028171;28;20038;-77
2023/07/05 08:16:43;;;;;;;4.47;0.85;;;18.20;99.90;;;;;;5021482;28;20119;-77
2023/07/05 08:19:09;;;;;;;3.90;1.50;;;18.20;99.90;;;;;;5012717;28;20467;-77
2023/07/05 08:21:36;;;;;;;2.97;1.20;;;18.10;99.90;;;;;;5011199;28;20034;-77
2023/07/05 08:24:03;;;;;;;3.08;1.20;;;18.10;99.90;;;;;;5008764;28;20345;-77
2023/07/05 08:26:28;;;;;;;2.42;0.98;;;18.00;99.90;;;;;;5009382;28;20068;-76
2023/07/05 08:28:54;;;;;;;2.83;1.10;;;17.80;99.90;;;;;;5007729;28;20030;-75
2023/07/05 08:31:19;;;;;;;1.77;1.35;;;17.80;99.90;;;;;;5004991;28;20028;-76
2023/07/05 08:33:45;;;;;;;2.85;1.20;;;17.70;99.90;;;;;;5003196;28;20018;-77
2023/07/05 08:36:13;;;;;;;2.55;1.20;;;17.70;99.90;;;;;;5007043;28;20030;-77
2023/07/05 08:38:50;;;;;;;3.88;1.05;;;17.70;99.90;;;;;;5004033;28;20026;-76
2023/07/05 08:41:37;;;;;;;3.08;1.33;;;17.80;99.90;;;;;;5008316;28;20396;-77
2023/07/05 08:44:30;;;;;;;2.40;1.05;;;17.80;99.90;;;;;;5005831;28;20044;-77
2023/07/05 08:47:02;;;;;;;1.63;1.13;;;17.90;99.90;;;;;;5004349;28;20121;-77
2023/07/05 08:49:50;;;;;;;2.05;0.98;;;18.00;99.90;;;;;;5004276;28;20133;-76
2023/07/05 08:52:24;;;;;;;1.25;0.85;;;18.10;99.90;;;;;;5005523;28;20025;-76
2023/07/05 08:54:57;;;;;;;2.17;1.00;;;18.10;99.90;;;;;;5002303;28;20034;-75
2023/07/05 08:57:31;;;;;;;2.88;1.02;;;18.20;99.90;;;;;;5000737;28;20040;-76
2023/07/05 08:59:59;;;;;;;3.72;1.10;;;18.20;99.90;;;;;;5000185;28;20169;-77
2023/07/05 09:02:26;;;;;;;3.13;1.20;;;18.30;99.90;;;;;;5018118;28;20033;-77
2023/07/05 09:04:53;;;;;;;3.10;0.98;;;18.30;99.90;;;;;;5005686;28;20030;-77
2023/07/05 09:07:28;;;;;;;2.03;0.80;;;18.30;99.90;;;;;;5007889;28;20022;-76
2023/07/05 09:10:43;;;;;;;1.88;0.95;;;18.40;99.90;;;;;;5006683;28;20645;-77
2023/07/05 09:13:23;;;;;;;3.53;1.45;;;18.50;99.90;;;;;;4980219;28;20043;-77
2023/07/05 09:15:55;;;;;;;1.30;0.70;;;18.50;99.90;;;;;;5006553;28;20048;-76
2023/07/05 09:18:41;;;;;;;1.52;0.90;;;18.60;99.90;;;;;;5002905;28;20040;-77
2023/07/05 09:21:34;;;;;;;1.40;0.90;;;18.70;99.90;;;;;;5016277;28;20400;-76
2023/07/05 09:24:34;;;;;;;1.90;1.08;;;18.80;99.90;;;;;;4999982;28;20092;-76
2023/07/05 09:27:16;;;;;;;1.23;0.80;;;19.00;99.90;;;;;;4989582;28;20049;-75
2023/07/05 09:29:51;;;;;;;2.10;1.30;;;19.00;99.90;;;;;;5000007;28;20214;-75
2023/07/05 09:32:21;;;;;;;4.55;1.30;;;19.00;99.90;;;;;;5003365;28;20033;-76
2023/07/05 09:35:17;;;;;;;2.25;1.30;;;19.00;99.90;;;;;;5004511;28;20026;-77
2023/07/05 09:38:10;;;;;;;3.00;1.13;;;19.10;99.90;;;;;;5006123;28;20407;-77
2023/07/05 09:40:41;;;;;;;2.92;1.10;;;19.20;99.90;;;;;;5006630;28;20520;-77
2023/07/05 09:43:12;;;;;;;2.30;1.33;;;19.30;99.90;;;;;;5004401;28;20034;-77
2023/07/05 09:45:38;;;;;;;2.30;1.23;;;19.40;99.90;;;;;;5005469;28;20362;-77
2023/07/05 09:48:08;;;;;;;2.30;1.15;;;19.50;99.90;;;;;;5006339;28;20029;-76
2023/07/05 09:50:34;;;;;;;2.60;1.08;;;19.50;99.90;;;;;;5004148;28;20018;-77
2023/07/05 09:53:28;;;;;;;3.13;1.55;;;19.60;99.90;;;;;;5004601;28;20500;-78
2023/07/05 09:56:15;;;;;;;2.25;1.23;;;19.80;99.90;;;;;;5002730;28;20037;-77
2023/07/05 09:58:47;;;;;;;3.33;1.30;;;19.90;99.90;;;;;;5003612;28;20553;-78
2023/07/05 10:01:23;;;;;;;2.63;1.48;;;20.00;99.90;;;;;;5006950;28;20026;-77
2023/07/05 10:03:54;;;;;;;1.98;1.20;;;20.10;99.90;;;;;;5008472;28;20037;-78
2023/07/05 10:06:24;;;;;;;2.05;1.10;;;20.20;99.90;;;;;;5005484;28;20049;-77
2023/07/05 10:08:51;;;;;;;3.83;1.27;;;20.20;99.90;;;;;;5007729;28;20022;-76
2023/07/05 10:11:21;;;;;;;2.28;1.17;;;20.20;99.90;;;;;;5007202;28;20132;-78
2023/07/05 10:14:05;;;;;;;3.45;1.58;;;20.30;99.90;;;;;;5006184;28;20031;-77
2023/07/05 10:16:45;;;;;;;2.70;1.25;;;20.40;99.90;;;;;;5007654;28;20014;-79
2023/07/05 10:19:32;;;;;;;2.97;1.60;;;20.40;99.90;;;;;;5010368;28;20100;-79
2023/07/05 10:22:13;;;;;;;3.13;1.58;;;20.50;99.90;;;;;;5009265;28;20650;-79
2023/07/05 10:24:48;;;;;;;4.05;1.67;;;20.50;99.90;;;;;;5009200;28;20034;-80
2023/07/05 10:27:34;;;;;;;1.98;1.20;;;20.60;99.90;;;;;;5008731;28;20512;-80
2023/07/05 10:30:03;;;;;;;4.32;1.80;;;20.80;99.90;;;;;;5012834;28;20034;-79
2023/07/05 10:32:32;;;;;;;2.92;1.20;;;20.80;99.90;;;;;;5012369;28;20025;-79
2023/07/05 10:34:59;;;;;;;5.25;1.33;;;20.90;99.90;;;;;;5015294;28;20071;-79
2023/07/05 10:37:31;;;;;;;2.67;1.48;;;20.90;99.90;;;;;;5021093;28;20022;-78
2023/07/05 10:39:57;;;;;;;3.13;1.40;;;21.00;99.90;;;;;;5019353;28;20032;-79
2023/07/05 10:42:25;;;;;;;2.00;1.35;;;21.00;99.90;;;;;;5011972;28;20488;-78
2023/07/05 10:44:51;;;;;;;4.53;1.60;;;21.10;99.90;;;;;;5014220;28;20026;-77
2023/07/05 10:47:18;;;;;;;2.28;1.40;;;21.20;99.90;;;;;;5015879;28;20030;-79
2023/07/05 10:49:47;;;;;;;2.35;1.50;;;21.30;99.90;;;;;;5013304;28;20029;-79
2023/07/05 10:52:15;;;;;;;3.22;1.42;;;21.40;99.90;;;;;;5011430;28;20064;-79
2023/07/05 10:55:04;;;;;;;3.28;1.80;;;21.40;99.90;;;;;;5011510;28;21784;-79
2023/07/05 10:57:40;;;;;;;4.40;1.33;;;21.50;99.90;;;;;;5008804;28;20404;-77
2023/07/05 11:00:18;;;;;;;3.40;1.52;;;21.60;99.90;;;;;;5013147;28;20380;-81
2023/07/05 11:02:55;;;;;;;4.55;1.60;;;21.70;99.90;;;;;;5010917;28;20481;-78
2023/07/05 11:05:45;;;;;;;2.60;1.85;;;21.70;99.90;;;;;;5011901;28;20029;-77
2023/07/05 11:08:26;;;;;;;2.95;1.50;;;21.80;99.90;;;;;;5011008;28;20128;-79
2023/07/05 11:10:57;;;;;;;2.88;1.85;;;21.80;99.90;;;;;;5011551;28;20026;-78
2023/07/05 11:13:23;;;;;;;1.83;1.35;;;21.80;99.90;;;;;;5010841;28;20023;-79
2023/07/05 11:15:49;;;;;;;2.88;1.38;;;21.80;99.90;;;;;;5011126;28;20505;-78
2023/07/05 11:18:20;;;;;;;4.07;1.70;;;21.80;99.90;;;;;;5007829;28;20393;-79
2023/07/05 11:20:57;;;;;;;2.47;1.30;;;21.80;99.90;;;;;;5010034;28;20029;-78
2023/07/05 11:23:41;;;;;;;3.60;2.00;;;21.90;99.90;;;;;;5012541;28;20049;-79
2023/07/05 11:26:08;;;;;;;3.30;1.67;;;21.90;99.70;;;;;;5016283;28;20022;-78
2023/07/05 11:28:40;;;;;;;2.70;1.80;;;21.90;99.60;;;;;;5016202;28;20475;-79
2023/07/05 11:31:29;;;;;;;4.07;2.15;;;21.90;98.70;;;;;;5010062;28;20377;-78
2023/07/05 11:34:23;;;;;;;3.88;1.73;;;22.00;98.30;;;;;;4988397;28;20046;-78
2023/07/05 11:36:49;;;;;;;7.20;1.90;;;22.10;97.90;;;;;;5012106;28;20088;-79
2023/07/05 11:39:51;;;;;;;2.30;1.63;;;22.10;97.00;;;;;;5013206;28;20030;-78
2023/07/05 11:42:37;;;;;;;4.65;1.95;;;22.20;96.30;;;;;;5011045;28;20052;-76
2023/07/05 11:45:05;;;;;;;2.67;1.73;;;22.20;93.70;;;;;;5004920;28;20030;-77
2023/07/05 11:47:34;;;;;;;2.45;1.67;;;22.30;91.50;;;;;;5008935;28;20022;-77
2023/07/05 11:50:07;;;;;;;2.47;1.77;;;22.30;91.90;;;;;;5005303;28;20040;-77
2023/07/05 11:52:37;;;;;;;5.30;2.28;;;22.40;92.60;;;;;;5004903;28;20026;-75
2023/07/05 11:55:18;;;;;;;3.83;1.90;;;22.40;91.80;;;;;;5011037;28;20080;-79
2023/07/05 11:58:04;;;;;;;4.60;1.50;;;22.50;91.00;;;;;;5016711;28;20037;-80
2023/07/05 12:00:49;;;;;;;5.30;2.20;;;22.50;89.60;;;;;;5014880;28;20026;-80
2023/07/05 12:03:49;;;;;;;2.85;1.95;;;22.50;88.90;;;;;;5015820;28;20158;-79
2023/07/05 12:06:25;;;;;;;3.33;1.90;;;22.50;89.10;;;;;;5009010;28;20038;-79
2023/07/05 12:09:01;;;;;;;4.68;2.35;;;22.60;88.30;;;;;;5015603;28;20026;-78
2023/07/05 12:11:35;;;;;;;3.28;2.00;;;22.70;85.90;;;;;;5015931;28;20097;-78
2023/07/05 12:14:02;;;;;;;4.75;2.20;;;22.70;84.60;;;;;;5015867;28;20077;-78
2023/07/05 12:16:28;;;;;;;2.95;1.58;;;22.70;83.60;;;;;;5016203;28;20026;-77
2023/07/05 12:18:54;;;;;;;3.20;1.85;;;22.80;82.10;;;;;;5014431;28;20075;-77
2023/07/05 12:21:20;;;;;;;3.00;1.90;;;22.80;80.00;;;;;;5016455;28;20026;-77
2023/07/05 12:23:50;;;;;;;3.35;1.88;;;22.90;75.80;;;;;;5016715;28;20030;-79
2023/07/05 12:26:24;;;;;;;3.38;1.95;;;22.80;74.40;;;;;;5015832;28;20021;-80
2023/07/05 12:28:51;;;;;;;3.05;2.10;;;22.80;74.10;;;;;;5019288;28;20150;-80
2023/07/05 12:31:22;;;;;;;2.72;1.67;;;22.80;73.40;;;;;;5018044;28;20022;-79
2023/07/05 12:33:53;;;;;;;3.35;1.88;;;22.90;73.60;;;;;;5018453;28;20018;-78
2023/07/05 12:36:20;;;;;;;2.80;1.77;;;22.90;73.50;;;;;;5018250;28;21388;-79
2023/07/05 12:38:49;;;;;;;3.47;1.83;;;22.90;73.20;;;;;;5019422;28;20022;-79
2023/07/05 12:41:14;;;;;;;2.47;1.63;;;22.90;70.70;;;;;;5018704;28;20018;-79
2023/07/05 12:43:40;;;;;;;3.50;1.95;;;22.90;71.40;;;;;;5015668;28;20037;-79
2023/07/05 12:46:08;;;;;;;2.58;1.55;;;23.00;70.20;;;;;;5018991;28;20536;-80
2023/07/05 12:48:34;;;;;;;2.70;1.88;;;23.00;68.60;;;;;;5022206;28;20413;-78
2023/07/05 12:51:06;;;;;;;3.15;1.85;;;22.90;68.60;;;;;;5020905;28;20109;-79
2023/07/05 12:53:32;;;;;;;3.90;2.13;;;23.00;69.80;;;;;;5024053;28;20080;-81
2023/07/05 12:56:09;;;;;;;3.58;1.90;;;23.00;69.80;;;;;;5020357;28;20388;-78
2023/07/05 12:58:36;;;;;;;2.50;1.83;;;23.00;69.10;;;;;;5020683;28;20045;-79
2023/07/05 13:01:02;;;;;;;2.95;1.92;;;23.10;68.10;;;;;;5021462;28;20441;-79